createdAt,value
2018-12-25T00:05:53.487Z,8.10
2018-12-25T00:11:59.395Z,7.90
2018-12-25T00:18:05.139Z,8.63
2018-12-25T00:24:10.794Z,7.43
2018-12-25T00:30:16.500Z,8.27
2018-12-25T00:36:22.417Z,8.03
2018-12-25T00:42:28.280Z,8.20
2018-12-25T00:48:34.005Z,8.13
2018-12-25T00:54:39.918Z,10.57
2018-12-25T01:00:45.730Z,8.20
2018-12-25T01:06:51.517Z,9.87
2018-12-25T01:12:57.343Z,11.03
2018-12-25T01:19:03.273Z,9.13
2018-12-25T01:25:09.422Z,8.53
2018-12-25T01:31:15.084Z,9.10
2018-12-25T01:37:20.774Z,8.23
2018-12-25T01:43:26.456Z,9.10
2018-12-25T01:49:32.214Z,8.80
2018-12-25T01:55:37.893Z,9.13
2018-12-25T02:01:43.592Z,9.63
2018-12-25T02:07:49.240Z,9.07
2018-12-25T02:13:54.895Z,8.77
2018-12-25T02:20:00.555Z,9.17
2018-12-25T02:26:06.871Z,9.27
2018-12-25T02:32:12.625Z,9.83
2018-12-25T02:38:18.539Z,9.07
2018-12-25T02:44:24.519Z,8.47
2018-12-25T02:50:30.406Z,8.43
2018-12-25T02:56:36.211Z,9.80
2018-12-25T03:02:42.059Z,8.80
2018-12-25T03:08:47.738Z,8.83
2018-12-25T03:14:53.476Z,9.10
2018-12-25T03:21:01.117Z,9.17
2018-12-25T03:27:06.829Z,9.70
2018-12-25T03:33:12.525Z,9.63
2018-12-25T03:39:18.446Z,9.17
2018-12-25T03:45:24.122Z,9.57
2018-12-25T03:51:29.899Z,8.93
2018-12-25T03:57:35.602Z,9.77
2018-12-25T04:03:41.262Z,8.90
2018-12-25T04:09:47.183Z,9.60
2018-12-25T04:15:52.938Z,9.40
2018-12-25T04:21:58.799Z,9.07
2018-12-25T04:28:04.499Z,9.27
2018-12-25T04:34:10.261Z,9.53
2018-12-25T04:40:15.940Z,10.57
2018-12-25T04:46:21.645Z,11.07
2018-12-25T04:52:27.574Z,10.43
2018-12-25T04:58:33.307Z,9.60
2018-12-25T05:04:39.013Z,9.70
2018-12-25T05:10:44.688Z,9.87
2018-12-25T05:16:50.785Z,9.40
2018-12-25T05:22:56.664Z,9.33
2018-12-25T05:29:02.564Z,9.50
2018-12-25T05:35:08.357Z,9.83
2018-12-25T05:41:14.031Z,9.67
2018-12-25T05:47:19.835Z,10.70
2018-12-25T05:53:25.663Z,9.53
2018-12-25T05:59:31.310Z,9.60
2018-12-25T06:05:37.129Z,9.60
2018-12-25T06:11:42.916Z,9.87
2018-12-25T06:17:48.764Z,10.70
2018-12-25T06:23:54.553Z,11.47
2018-12-25T06:30:00.228Z,10.53
2018-12-25T06:36:06.063Z,11.20
2018-12-25T06:42:11.834Z,10.27
2018-12-25T06:48:17.567Z,11.83
2018-12-25T06:54:23.423Z,10.70
2018-12-25T07:00:29.096Z,10.90
2018-12-25T07:06:34.768Z,11.37
2018-12-25T07:12:40.712Z,11.53
2018-12-25T07:18:46.421Z,11.93
2018-12-25T07:24:52.103Z,12.17
2018-12-25T07:30:57.875Z,11.60
2018-12-25T07:37:03.753Z,13.10
2018-12-25T07:43:09.567Z,12.33
2018-12-25T07:49:16.456Z,11.63
2018-12-25T07:55:22.136Z,12.83
2018-12-25T08:01:27.910Z,12.47
2018-12-25T08:07:33.735Z,13.43
2018-12-25T08:13:39.544Z,11.80
2018-12-25T08:19:45.498Z,14.20
2018-12-25T08:25:51.241Z,13.80
2018-12-25T08:31:56.923Z,14.40
2018-12-25T08:38:02.591Z,13.67
2018-12-25T08:44:08.376Z,13.87
2018-12-25T08:50:15.149Z,13.93
2018-12-25T08:56:21.579Z,14.27
2018-12-25T09:02:27.852Z,13.93
2018-12-25T09:08:36.165Z,14.93
2018-12-25T09:14:44.430Z,15.37
2018-12-25T09:20:53.688Z,14.93
2018-12-25T09:26:59.643Z,15.10
2018-12-25T09:33:05.462Z,15.03
2018-12-25T09:39:11.392Z,14.27
2018-12-25T09:45:17.465Z,13.07
2018-12-25T09:51:23.271Z,13.67
2018-12-25T09:57:29.127Z,17.00
2018-12-25T10:03:40.635Z,17.53
2018-12-25T10:09:46.338Z,15.10
2018-12-25T10:15:52.251Z,12.73
2018-12-25T10:22:02.927Z,12.20
2018-12-25T10:28:05.969Z,11.50
2018-12-25T10:34:11.716Z,10.70
2018-12-25T10:40:17.657Z,11.97
2018-12-25T10:46:25.518Z,11.03
2018-12-25T10:52:31.230Z,10.47
2018-12-25T10:58:36.958Z,11.73
2018-12-25T11:04:42.954Z,10.20
2018-12-25T11:10:48.644Z,13.77
2018-12-25T11:16:54.318Z,11.67
2018-12-25T11:23:00.256Z,11.90
2018-12-25T11:29:06.155Z,10.77
2018-12-25T11:35:12.007Z,10.60
2018-12-25T11:41:17.819Z,16.80
2018-12-25T11:47:23.492Z,17.03
2018-12-25T11:53:30.747Z,12.00
2018-12-25T11:59:36.482Z,14.27
2018-12-25T12:05:42.339Z,10.57
2018-12-25T12:11:48.005Z,14.47
2018-12-25T12:17:53.790Z,12.10
2018-12-25T12:23:59.516Z,10.10
2018-12-25T12:30:06.897Z,11.73
2018-12-25T12:36:12.781Z,10.97
2018-12-25T12:42:18.500Z,12.33
2018-12-25T12:48:24.305Z,12.07
2018-12-25T12:54:30.181Z,10.70
2018-12-25T13:00:36.133Z,11.03
2018-12-25T13:06:41.802Z,13.00
2018-12-25T13:12:48.074Z,11.63
2018-12-25T13:18:53.986Z,12.20
2018-12-25T13:24:59.664Z,12.53
2018-12-25T13:31:24.378Z,10.70
2018-12-25T13:37:30.179Z,10.13
2018-12-25T13:43:36.009Z,11.23
2018-12-25T13:49:42.031Z,11.13
2018-12-25T13:55:48.223Z,10.80
2018-12-25T14:01:53.940Z,11.67
2018-12-25T14:07:59.844Z,11.23
2018-12-25T14:14:06.160Z,12.37
2018-12-25T14:20:12.305Z,12.27
2018-12-25T14:26:18.276Z,11.73
2018-12-25T14:32:24.238Z,12.43
2018-12-25T14:38:30.101Z,12.83
2018-12-25T14:44:36.056Z,13.13
2018-12-25T14:50:41.743Z,13.23
2018-12-25T14:56:47.597Z,12.70
2018-12-25T15:02:53.595Z,13.30
2018-12-25T15:08:59.295Z,14.37
2018-12-25T15:15:05.293Z,14.07
2018-12-25T15:21:11.239Z,14.13
2018-12-25T15:27:18.896Z,15.10
2018-12-25T15:33:24.932Z,14.20
2018-12-25T15:45:43.442Z,13.07
2018-12-25T15:51:49.437Z,14.90
2018-12-25T15:57:55.345Z,17.17
2018-12-25T16:04:01.540Z,14.50
2018-12-25T16:10:07.713Z,14.67
2018-12-25T16:16:13.509Z,15.17
2018-12-25T16:22:19.564Z,15.70
2018-12-25T16:28:25.303Z,14.57
2018-12-25T16:34:31.196Z,14.70
2018-12-25T16:40:37.018Z,15.80
2018-12-25T16:46:42.997Z,15.27
2018-12-25T16:52:48.933Z,15.40
2018-12-25T16:58:55.379Z,15.47
2018-12-25T17:05:01.055Z,15.43
2018-12-25T17:11:06.819Z,14.60
2018-12-25T17:17:13.004Z,14.60
2018-12-25T17:23:18.654Z,15.07
2018-12-25T17:29:26.461Z,16.23
2018-12-25T17:35:35.819Z,14.70
2018-12-25T17:41:41.932Z,14.67
2018-12-25T17:47:47.806Z,14.90
2018-12-25T17:53:57.288Z,14.23
2018-12-25T18:00:03.418Z,14.50
2018-12-25T18:06:09.114Z,16.17
2018-12-25T18:12:15.841Z,14.77
2018-12-25T18:18:21.874Z,15.00
2018-12-25T18:24:27.857Z,17.80
2018-12-25T18:30:33.746Z,14.97
2018-12-25T18:36:39.451Z,15.97
2018-12-25T18:42:45.227Z,16.60
2018-12-25T18:48:51.033Z,16.03
2018-12-25T18:54:56.776Z,16.67
2018-12-25T19:01:02.607Z,17.47
2018-12-25T19:07:08.349Z,16.13
2018-12-25T19:13:14.241Z,17.40
2018-12-25T19:19:20.088Z,19.13
2018-12-25T19:25:26.084Z,16.47
2018-12-25T19:31:31.898Z,18.33
2018-12-25T19:37:37.596Z,19.33
2018-12-25T19:43:43.281Z,17.73
2018-12-25T19:49:48.933Z,20.40
2018-12-25T19:55:54.773Z,18.53
2018-12-25T20:02:00.523Z,19.53
2018-12-25T20:08:53.936Z,21.03
2018-12-25T20:15:31.902Z,20.40
2018-12-25T20:22:46.437Z,19.70
2018-12-25T20:30:06.865Z,21.43
2018-12-25T20:37:26.649Z,20.73
2018-12-25T20:44:29.670Z,20.57
2018-12-25T20:51:21.358Z,21.10
2018-12-25T20:58:35.180Z,22.33
2018-12-25T21:05:35.267Z,23.20
2018-12-25T21:12:24.255Z,23.67
2018-12-25T21:19:36.915Z,22.63
2018-12-25T21:26:35.615Z,22.43
2018-12-25T21:32:45.423Z,25.63
2018-12-25T21:38:51.288Z,26.90
2018-12-25T21:44:57.687Z,25.73
2018-12-25T21:51:03.755Z,27.00
2018-12-25T21:57:09.946Z,27.37
2018-12-25T22:03:15.728Z,24.13
2018-12-25T22:09:21.536Z,31.37
2018-12-25T22:15:27.277Z,29.27
2018-12-25T22:21:33.091Z,29.13
2018-12-25T22:27:38.871Z,28.90
2018-12-25T22:33:44.705Z,28.40
2018-12-25T22:39:50.465Z,25.30
2018-12-25T22:45:56.423Z,27.53
2018-12-25T22:52:08.016Z,27.77
2018-12-25T22:58:15.118Z,34.20
2018-12-25T23:04:28.307Z,32.80
2018-12-25T23:10:34.347Z,34.13
2018-12-25T23:16:40.430Z,30.03
2018-12-25T23:22:46.420Z,30.67
2018-12-25T23:28:52.349Z,31.77
2018-12-25T23:35:01.831Z,27.73
2018-12-25T23:41:16.519Z,34.87
2018-12-25T23:47:22.283Z,30.53
2018-12-25T23:53:28.425Z,33.43
2018-12-25T23:59:34.126Z,32.23
